createdAt,value
2023-01-23T00:01:35.161Z,1.41
2023-01-23T00:04:03.491Z,1.40
2023-01-23T00:06:30.776Z,1.30
2023-01-23T00:08:58.205Z,1.39
2023-01-23T00:11:30.330Z,1.37
2023-01-23T00:13:59.280Z,1.41
2023-01-23T00:16:32.667Z,1.39
2023-01-23T00:19:00.251Z,1.36
2023-01-23T00:21:29.160Z,1.34
2023-01-23T00:23:58.780Z,1.34
2023-01-23T00:26:30.233Z,1.35
2023-01-23T00:28:57.675Z,1.32
2023-01-23T00:31:30.634Z,1.32
2023-01-23T00:34:05.984Z,1.31
2023-01-23T00:36:42.149Z,1.40
2023-01-23T00:39:19.914Z,1.35
2023-01-23T00:41:49.135Z,1.32
2023-01-23T00:44:19.908Z,1.32
2023-01-23T00:46:48.287Z,1.37
2023-01-23T00:49:17.750Z,1.33
2023-01-23T00:51:46.183Z,1.38
2023-01-23T00:54:13.206Z,1.35
2023-01-23T00:56:40.170Z,1.38
2023-01-23T00:59:07.277Z,1.30
2023-01-23T01:01:35.179Z,1.35
2023-01-23T01:04:02.198Z,1.29
2023-01-23T01:06:29.888Z,1.39
2023-01-23T01:08:58.247Z,1.27
2023-01-23T01:11:26.077Z,1.32
2023-01-23T01:13:53.697Z,1.29
2023-01-23T01:16:20.885Z,1.32
2023-01-23T01:18:47.849Z,1.30
2023-01-23T01:21:17.771Z,1.36
2023-01-23T01:23:45.188Z,1.34
2023-01-23T01:26:12.787Z,1.34
2023-01-23T01:28:42.211Z,1.40
2023-01-23T01:31:16.088Z,1.34
2023-01-23T01:33:44.125Z,1.23
2023-01-23T01:36:19.231Z,1.32
2023-01-23T01:38:46.567Z,1.29
2023-01-23T01:41:14.455Z,1.42
2023-01-23T01:43:42.942Z,1.37
2023-01-23T01:46:12.645Z,1.34
2023-01-23T01:49:29.989Z,1.43
2023-01-23T01:52:11.205Z,1.42
2023-01-23T01:54:51.065Z,1.41
2023-01-23T01:57:35.527Z,1.42
2023-01-23T02:00:17.352Z,1.37
2023-01-23T02:03:01.372Z,1.37
2023-01-23T02:05:37.940Z,1.36
2023-01-23T02:08:52.985Z,1.43
2023-01-23T02:11:20.232Z,1.41
2023-01-23T02:13:47.199Z,1.41
2023-01-23T02:16:25.279Z,1.40
2023-01-23T02:19:00.990Z,1.39
2023-01-23T02:21:29.577Z,1.31
2023-01-23T02:24:27.989Z,1.35
2023-01-23T02:26:55.018Z,1.35
2023-01-23T02:29:21.953Z,1.34
2023-01-23T02:31:52.789Z,1.34
2023-01-23T02:34:22.141Z,1.26
2023-01-23T02:36:49.432Z,1.29
2023-01-23T02:39:21.214Z,1.36
2023-01-23T02:41:51.543Z,1.35
2023-01-23T02:44:26.844Z,1.26
2023-01-23T02:47:02.709Z,1.37
2023-01-23T02:49:29.878Z,1.43
2023-01-23T02:51:57.588Z,1.27
2023-01-23T02:54:26.152Z,1.37
2023-01-23T02:56:53.627Z,1.36
2023-01-23T02:59:39.607Z,1.39
2023-01-23T03:02:06.639Z,1.34
2023-01-23T03:04:33.749Z,1.27
2023-01-23T03:07:00.825Z,1.30
2023-01-23T03:09:28.332Z,1.33
2023-01-23T03:11:55.509Z,1.33
2023-01-23T03:14:24.449Z,1.30
2023-01-23T03:16:53.719Z,1.39
2023-01-23T03:19:26.591Z,1.29
2023-01-23T03:21:54.834Z,1.32
2023-01-23T03:24:24.832Z,1.38
2023-01-23T03:26:52.365Z,1.28
2023-01-23T03:29:44.261Z,1.27
2023-01-23T03:32:14.960Z,1.27
2023-01-23T03:34:43.402Z,1.27
2023-01-23T03:37:12.614Z,1.36
2023-01-23T03:39:58.264Z,1.38
2023-01-23T03:42:25.406Z,1.39
2023-01-23T03:44:53.703Z,1.37
2023-01-23T03:47:20.842Z,1.45
2023-01-23T03:49:47.835Z,1.43
2023-01-23T03:52:15.015Z,1.47
2023-01-23T03:54:42.257Z,1.37
2023-01-23T03:57:10.275Z,1.35
2023-01-23T03:59:37.211Z,1.49
2023-01-23T04:02:07.641Z,1.45
2023-01-23T04:04:35.963Z,1.56
2023-01-23T04:07:04.194Z,1.46
2023-01-23T04:09:31.213Z,1.40
2023-01-23T04:12:00.009Z,1.46
2023-01-23T04:14:37.425Z,1.44
2023-01-23T04:17:07.494Z,1.41
2023-01-23T04:19:35.553Z,1.45
2023-01-23T04:22:03.022Z,1.41
2023-01-23T04:24:29.969Z,1.30
2023-01-23T04:26:57.019Z,1.39
2023-01-23T04:29:24.024Z,1.42
2023-01-23T04:31:51.044Z,1.54
2023-01-23T04:34:21.346Z,1.44
2023-01-23T04:36:51.368Z,1.50
2023-01-23T04:39:18.285Z,1.48
2023-01-23T04:41:45.577Z,1.48
2023-01-23T04:44:22.109Z,1.46
2023-01-23T04:46:55.440Z,1.50
2023-01-23T04:49:24.526Z,1.44
2023-01-23T04:51:55.160Z,1.40
2023-01-23T04:54:22.273Z,1.47
2023-01-23T04:56:49.856Z,1.35
2023-01-23T04:59:16.950Z,1.28
2023-01-23T05:01:45.463Z,1.29
2023-01-23T05:04:12.750Z,1.28
2023-01-23T05:06:40.084Z,1.32
2023-01-23T05:09:08.668Z,1.20
2023-01-23T05:11:35.619Z,1.29
2023-01-23T05:14:03.076Z,1.29
2023-01-23T05:16:30.143Z,1.34
2023-01-23T05:18:57.099Z,1.32
2023-01-23T05:21:24.058Z,1.25
2023-01-23T05:23:51.179Z,1.25
2023-01-23T05:26:18.240Z,1.33
2023-01-23T05:28:46.211Z,1.22
2023-01-23T05:31:13.734Z,1.27
2023-01-23T05:33:40.815Z,1.23
2023-01-23T05:36:08.124Z,1.24
2023-01-23T05:38:38.253Z,1.25
2023-01-23T05:41:05.344Z,1.35
2023-01-23T05:43:32.581Z,1.34
2023-01-23T05:46:01.497Z,1.36
2023-01-23T05:48:29.521Z,1.38
2023-01-23T05:50:56.790Z,1.19
2023-01-23T05:53:23.904Z,1.19
2023-01-23T05:55:50.995Z,1.21
2023-01-23T05:58:17.913Z,1.17
2023-01-23T06:00:44.826Z,1.22
2023-01-23T06:03:11.799Z,1.15
2023-01-23T06:05:43.301Z,1.18
2023-01-23T06:08:14.590Z,1.26
2023-01-23T06:10:41.460Z,1.13
2023-01-23T06:13:08.360Z,1.14
2023-01-23T06:15:35.425Z,1.21
2023-01-23T06:18:02.504Z,1.16
2023-01-23T06:20:29.937Z,1.19
2023-01-23T06:22:57.416Z,1.03
2023-01-23T06:25:24.844Z,1.19
2023-01-23T06:27:55.109Z,1.12
2023-01-23T06:30:22.489Z,1.30
2023-01-23T06:32:49.665Z,1.22
2023-01-23T06:35:16.832Z,1.15
2023-01-23T06:37:45.933Z,1.16
2023-01-23T06:40:14.252Z,1.18
2023-01-23T06:42:42.534Z,1.24
2023-01-23T06:45:12.094Z,1.21
2023-01-23T06:47:39.296Z,1.26
2023-01-23T06:50:07.505Z,1.18
2023-01-23T06:52:34.658Z,1.16
2023-01-23T06:55:01.633Z,1.21
2023-01-23T06:57:28.721Z,1.10
2023-01-23T06:59:55.617Z,1.09
2023-01-23T07:02:23.350Z,1.21
2023-01-23T07:04:50.443Z,1.11
2023-01-23T07:07:18.469Z,1.13
2023-01-23T07:09:45.531Z,0.99
2023-01-23T07:12:13.180Z,1.12
2023-01-23T07:14:40.099Z,1.12
2023-01-23T07:17:07.162Z,1.15
2023-01-23T07:19:34.134Z,1.11
2023-01-23T07:22:01.372Z,1.32
2023-01-23T07:24:32.469Z,1.31
2023-01-23T07:27:00.235Z,1.27
2023-01-23T07:29:27.308Z,1.36
2023-01-23T07:31:54.354Z,1.19
2023-01-23T07:34:21.379Z,1.33
2023-01-23T07:36:48.272Z,1.26
2023-01-23T07:39:16.093Z,1.37
2023-01-23T07:41:44.828Z,1.20
2023-01-23T07:44:21.687Z,1.28
2023-01-23T07:46:49.823Z,1.21
2023-01-23T07:49:17.365Z,1.25
2023-01-23T07:51:44.431Z,1.27
2023-01-23T07:54:11.698Z,1.24
2023-01-23T07:56:41.756Z,1.34
2023-01-23T07:59:09.021Z,1.40
2023-01-23T08:01:36.056Z,1.39
2023-01-23T08:04:03.215Z,1.35
2023-01-23T08:06:30.309Z,1.18
2023-01-23T08:08:57.258Z,1.23
2023-01-23T08:11:26.417Z,1.19
2023-01-23T08:13:53.498Z,1.33
2023-01-23T08:16:20.541Z,1.27
2023-01-23T08:18:47.755Z,1.32
2023-01-23T08:21:14.900Z,1.46
2023-01-23T08:23:45.779Z,1.42
2023-01-23T08:26:16.256Z,1.37
2023-01-23T08:28:46.004Z,1.44
2023-01-23T08:31:14.922Z,1.42
2023-01-23T08:33:42.472Z,1.32
2023-01-23T08:36:12.958Z,1.46
2023-01-23T08:38:40.343Z,1.45
2023-01-23T08:41:09.820Z,1.37
2023-01-23T08:43:38.187Z,1.35
2023-01-23T08:46:05.270Z,1.46
2023-01-23T08:48:34.091Z,1.47
2023-01-23T08:51:14.066Z,1.38
2023-01-23T08:53:42.026Z,1.50
2023-01-23T08:56:19.248Z,1.33
2023-01-23T08:58:51.345Z,1.55
2023-01-23T09:01:25.755Z,1.52
2023-01-23T09:03:53.299Z,1.49
2023-01-23T09:06:22.747Z,1.64
2023-01-23T09:08:50.410Z,1.48
2023-01-23T09:11:18.646Z,1.48
2023-01-23T09:13:46.870Z,1.38
2023-01-23T09:16:14.455Z,1.38
2023-01-23T09:18:42.504Z,1.52
2023-01-23T09:21:14.592Z,1.53
2023-01-23T09:23:42.301Z,1.44
2023-01-23T09:26:13.332Z,1.70
2023-01-23T09:28:42.701Z,1.51
2023-01-23T09:31:14.684Z,1.46
2023-01-23T09:33:42.724Z,1.52
2023-01-23T09:36:10.559Z,1.59
2023-01-23T09:38:37.729Z,1.56
2023-01-23T09:41:23.623Z,1.77
2023-01-23T09:44:11.644Z,1.68
2023-01-23T09:47:02.412Z,1.75
2023-01-23T09:49:53.228Z,1.62
2023-01-23T09:52:25.998Z,1.75
2023-01-23T09:55:18.446Z,1.97
2023-01-23T09:57:55.711Z,1.85
2023-01-23T10:00:29.957Z,1.73
2023-01-23T10:02:58.086Z,1.92
2023-01-23T10:06:09.306Z,2.04
2023-01-23T10:08:55.111Z,2.19
2023-01-23T10:11:42.655Z,1.87
2023-01-23T10:15:19.181Z,1.75
2023-01-23T10:18:15.882Z,1.64
2023-01-23T10:21:28.903Z,2.11
2023-01-23T10:24:40.480Z,1.91
2023-01-23T10:27:41.773Z,2.02
2023-01-23T10:30:35.101Z,2.01
2023-01-23T10:33:16.185Z,1.97
2023-01-23T10:36:05.113Z,1.88
2023-01-23T10:38:48.060Z,1.94
2023-01-23T10:41:23.549Z,1.75
2023-01-23T10:43:54.812Z,2.08
2023-01-23T10:46:43.374Z,1.89
2023-01-23T10:49:10.446Z,1.83
2023-01-23T10:51:47.845Z,1.90
2023-01-23T10:54:32.836Z,1.93
2023-01-23T10:57:24.227Z,2.05
2023-01-23T11:00:45.644Z,1.93
2023-01-23T11:03:32.630Z,1.88
2023-01-23T11:06:09.350Z,1.84
2023-01-23T11:08:47.268Z,1.88
2023-01-23T11:11:23.786Z,2.08
2023-01-23T11:14:22.643Z,2.21
2023-01-23T11:17:33.279Z,2.00
2023-01-23T11:20:32.207Z,2.10
2023-01-23T11:30:54.201Z,1.87
2023-01-23T11:33:25.240Z,1.83
2023-01-23T11:36:19.406Z,1.88
2023-01-23T11:39:19.070Z,2.07
2023-01-23T11:42:04.498Z,1.63
2023-01-23T11:44:44.999Z,1.97
2023-01-23T11:47:59.045Z,2.01
2023-01-23T11:50:55.970Z,1.95
2023-01-23T11:53:58.575Z,1.97
2023-01-23T11:56:33.301Z,1.79
2023-01-23T11:59:31.952Z,1.82
2023-01-23T12:02:40.489Z,1.89
2023-01-23T12:06:13.879Z,1.92
2023-01-23T12:09:12.275Z,1.97
2023-01-23T12:12:20.372Z,2.12
2023-01-23T12:15:23.715Z,1.87
2023-01-23T12:18:17.354Z,1.86
2023-01-23T12:20:48.312Z,1.88
2023-01-23T12:23:49.112Z,1.83
2023-01-23T12:26:24.571Z,2.04
2023-01-23T12:30:08.688Z,2.08
2023-01-23T12:32:54.733Z,1.99
2023-01-23T12:35:42.641Z,2.06
2023-01-23T12:38:44.203Z,1.99
2023-01-23T12:41:53.343Z,2.07
2023-01-23T12:44:54.107Z,1.97
2023-01-23T12:47:44.690Z,1.97
2023-01-23T12:50:42.450Z,1.89
2023-01-23T12:53:18.070Z,1.80
2023-01-23T12:56:15.571Z,1.93
2023-01-23T12:59:14.171Z,1.94
2023-01-23T13:02:46.025Z,1.99
2023-01-23T13:06:00.385Z,2.10
2023-01-23T13:08:38.389Z,1.84
2023-01-23T13:11:44.927Z,2.01
2023-01-23T13:15:06.475Z,2.10
2023-01-23T13:17:40.005Z,2.13
2023-01-23T13:20:51.932Z,2.12
2023-01-23T13:23:33.403Z,2.12
2023-01-23T13:26:15.768Z,2.28
2023-01-23T13:28:57.870Z,1.86
2023-01-23T13:31:47.507Z,2.01
2023-01-23T13:34:37.082Z,2.07
2023-01-23T13:37:51.244Z,1.93
2023-01-23T13:40:24.590Z,2.13
2023-01-23T13:42:52.019Z,2.23
2023-01-23T13:45:30.811Z,2.19
2023-01-23T14:20:39.988Z,2.02
2023-01-23T14:23:29.739Z,2.10
2023-01-23T14:25:57.517Z,1.98
2023-01-23T14:28:24.933Z,2.21
2023-01-23T14:31:06.821Z,2.25
2023-01-23T14:33:45.330Z,2.17
2023-01-23T14:36:18.336Z,2.17
2023-01-23T14:38:49.997Z,1.90
2023-01-23T14:41:20.904Z,1.93
2023-01-23T14:43:56.943Z,2.00
2023-01-23T14:46:39.107Z,1.97
2023-01-23T14:49:09.857Z,1.89
2023-01-23T14:51:39.626Z,2.04
2023-01-23T14:54:22.793Z,1.88
2023-01-23T14:56:51.132Z,2.00
2023-01-23T14:59:40.166Z,2.13
2023-01-23T15:02:40.329Z,1.85
2023-01-23T15:05:23.479Z,2.00
2023-01-23T15:08:05.951Z,1.97
2023-01-23T15:10:43.728Z,1.74
2023-01-23T15:13:50.179Z,1.85
2023-01-23T15:16:29.188Z,1.87
2023-01-23T15:19:18.790Z,1.75
2023-01-23T15:21:46.188Z,1.82
2023-01-23T15:24:13.194Z,1.71
2023-01-23T15:27:01.300Z,1.72
2023-01-23T15:29:28.476Z,1.72
2023-01-23T15:31:57.191Z,1.82
2023-01-23T15:34:29.313Z,1.72
2023-01-23T15:37:13.977Z,1.58
2023-01-23T15:40:02.416Z,1.65
2023-01-23T15:42:35.649Z,1.60
2023-01-23T15:45:15.055Z,1.60
2023-01-23T15:47:44.250Z,1.72
2023-01-23T15:50:13.275Z,1.72
2023-01-23T15:52:53.827Z,1.64
2023-01-23T15:55:26.481Z,1.75
2023-01-23T15:57:55.224Z,1.90
2023-01-23T16:00:29.961Z,1.72
2023-01-23T16:02:59.513Z,1.83
2023-01-23T16:05:35.342Z,1.77
2023-01-23T16:08:05.827Z,1.82
2023-01-23T16:10:38.480Z,1.75
2023-01-23T16:13:07.849Z,1.88
2023-01-23T16:15:38.163Z,1.63
2023-01-23T16:18:05.671Z,1.80
2023-01-23T16:20:41.233Z,1.90
2023-01-23T16:23:19.645Z,1.69
2023-01-23T16:25:48.203Z,1.79
2023-01-23T16:28:20.423Z,1.85
2023-01-23T16:30:50.720Z,1.83
2023-01-23T16:33:22.111Z,1.82
2023-01-23T16:35:51.303Z,1.71
2023-01-23T16:38:53.485Z,1.77
2023-01-23T16:41:20.454Z,1.55
2023-01-23T16:43:47.388Z,1.72
2023-01-23T16:46:17.396Z,1.52
2023-01-23T16:48:44.489Z,1.53
2023-01-23T16:51:24.169Z,1.37
2023-01-23T16:53:57.953Z,1.50
2023-01-23T16:56:38.064Z,1.37
2023-01-23T16:59:08.513Z,1.39
2023-01-23T17:01:40.525Z,1.49
2023-01-23T17:04:07.744Z,1.42
2023-01-23T17:06:34.867Z,1.29
2023-01-23T17:09:01.803Z,1.29
2023-01-23T17:11:50.081Z,1.28
2023-01-23T17:14:24.669Z,1.39
2023-01-23T17:16:53.438Z,1.29
2023-01-23T17:19:40.248Z,1.22
2023-01-23T17:22:30.370Z,1.28
2023-01-23T17:24:57.454Z,1.38
2023-01-23T17:27:24.521Z,1.41
2023-01-23T17:29:51.434Z,1.44
2023-01-23T17:32:39.183Z,1.25
2023-01-23T17:35:17.093Z,1.32
2023-01-23T17:37:44.210Z,1.25
2023-01-23T17:40:15.939Z,1.33
2023-01-23T17:42:43.724Z,1.22
2023-01-23T17:45:19.785Z,1.28
2023-01-23T17:47:54.771Z,1.33
2023-01-23T17:50:27.077Z,1.26
2023-01-23T17:52:54.836Z,1.43
2023-01-23T17:55:28.821Z,1.24
2023-01-23T17:57:55.707Z,1.30
2023-01-23T18:00:23.481Z,1.22
2023-01-23T18:03:01.941Z,1.23
2023-01-23T18:05:29.002Z,1.23
2023-01-23T18:07:56.284Z,1.19
2023-01-23T18:10:28.353Z,1.27
2023-01-23T18:13:14.208Z,1.27
2023-01-23T18:16:07.408Z,1.19
2023-01-23T18:18:39.066Z,1.24
2023-01-23T18:21:15.511Z,1.18
2023-01-23T18:23:43.196Z,1.17
2023-01-23T18:26:27.953Z,1.19
2023-01-23T18:29:10.127Z,1.18
2023-01-23T18:32:04.963Z,1.24
2023-01-23T18:35:25.408Z,1.37
2023-01-23T18:38:54.666Z,1.54
2023-01-23T18:41:27.094Z,1.27
2023-01-23T18:44:12.478Z,1.32
2023-01-23T18:46:39.732Z,1.37
2023-01-23T18:49:08.781Z,1.35
2023-01-23T18:51:49.684Z,1.37
2023-01-23T18:55:11.446Z,1.18
2023-01-23T18:58:20.941Z,1.35
2023-01-23T19:01:29.808Z,1.21
2023-01-23T19:03:57.592Z,1.03
2023-01-23T19:06:26.277Z,1.17
2023-01-23T19:08:54.480Z,1.22
2023-01-23T19:12:24.920Z,1.16
2023-01-23T19:15:41.444Z,1.07
2023-01-23T19:18:43.285Z,1.05
2023-01-23T19:21:26.664Z,1.16
2023-01-23T19:24:09.943Z,1.07
2023-01-23T19:26:42.009Z,1.12
2023-01-23T19:29:21.569Z,1.08
2023-01-23T19:32:06.924Z,1.00
2023-01-23T19:34:34.729Z,0.99
2023-01-23T19:37:02.905Z,0.97
2023-01-23T19:39:30.708Z,0.93
2023-01-23T19:41:59.358Z,1.06
2023-01-23T19:44:28.933Z,1.13
2023-01-23T19:46:56.094Z,0.99
2023-01-23T19:49:23.167Z,1.03
2023-01-23T19:51:50.195Z,1.03
2023-01-23T19:54:17.279Z,1.06
2023-01-23T19:56:44.224Z,1.08
2023-01-23T19:59:11.469Z,1.04
2023-01-23T20:01:52.294Z,1.13
2023-01-23T20:04:22.922Z,1.03
2023-01-23T20:06:51.843Z,1.08
2023-01-23T20:09:20.020Z,1.12
2023-01-23T20:11:47.923Z,0.92
2023-01-23T20:14:15.690Z,0.97
2023-01-23T20:16:44.538Z,1.01
2023-01-23T20:19:15.387Z,0.89
2023-01-23T20:21:42.552Z,1.05
2023-01-23T20:24:09.671Z,0.98
2023-01-23T20:26:38.725Z,0.92
2023-01-23T20:29:07.804Z,0.97
2023-01-23T20:31:35.763Z,1.07
2023-01-23T20:34:03.158Z,0.92
2023-01-23T20:36:30.306Z,0.84
2023-01-23T20:38:57.646Z,0.92
2023-01-23T20:41:24.781Z,1.03
2023-01-23T20:43:51.726Z,0.97
2023-01-23T20:46:21.631Z,0.88
2023-01-23T20:48:48.782Z,0.95
2023-01-23T20:51:16.830Z,0.90
2023-01-23T20:53:44.680Z,0.99
2023-01-23T20:56:19.409Z,0.95
2023-01-23T20:59:08.172Z,0.86
2023-01-23T21:01:57.842Z,0.84
2023-01-23T21:04:32.499Z,0.89
2023-01-23T21:07:00.223Z,0.98
2023-01-23T21:09:27.748Z,0.96
2023-01-23T21:11:55.506Z,0.93
2023-01-23T21:14:23.650Z,0.91
2023-01-23T21:16:50.664Z,0.86
2023-01-23T21:19:18.630Z,0.76
2023-01-23T21:21:46.884Z,0.74
2023-01-23T21:24:14.337Z,0.77
2023-01-23T21:26:41.826Z,0.57
2023-01-23T21:29:08.935Z,0.72
2023-01-23T21:31:39.305Z,0.82
2023-01-23T21:34:11.934Z,0.88
2023-01-23T21:36:41.020Z,0.81
2023-01-23T21:39:10.321Z,0.77
2023-01-23T21:41:37.587Z,0.88
2023-01-23T21:44:04.665Z,0.79
2023-01-23T21:46:31.656Z,0.79
2023-01-23T21:48:59.614Z,0.67
2023-01-23T21:51:27.783Z,0.65
2023-01-23T21:53:54.790Z,0.69
2023-01-23T21:56:23.982Z,0.72
2023-01-23T21:58:55.758Z,0.69
2023-01-23T22:01:42.021Z,0.88
2023-01-23T22:04:16.207Z,0.74
2023-01-23T22:07:01.358Z,0.74
2023-01-23T22:09:33.377Z,0.60
2023-01-23T22:12:01.196Z,0.70
2023-01-23T22:14:31.118Z,0.74
2023-01-23T22:16:58.443Z,0.71
2023-01-23T22:19:26.082Z,0.54
2023-01-23T22:21:55.946Z,0.60
2023-01-23T22:24:26.855Z,0.58
2023-01-23T22:26:55.094Z,0.66
2023-01-23T22:29:33.343Z,0.54
2023-01-23T22:32:12.484Z,0.64
2023-01-23T22:34:40.020Z,0.59
2023-01-23T22:37:08.247Z,0.59
2023-01-23T22:39:40.998Z,0.87
2023-01-23T22:42:19.737Z,0.80
2023-01-23T22:47:56.051Z,0.70
2023-01-23T22:50:34.979Z,0.51
2023-01-23T22:53:04.514Z,0.44
2023-01-23T22:55:32.069Z,0.46
2023-01-23T22:57:59.516Z,0.58
2023-01-23T23:00:31.996Z,0.53
2023-01-23T23:02:59.286Z,0.48
2023-01-23T23:05:27.145Z,0.60
2023-01-23T23:08:02.978Z,0.45
2023-01-23T23:10:30.645Z,0.42
2023-01-23T23:13:04.029Z,0.45
2023-01-23T23:15:41.770Z,0.49
2023-01-23T23:18:12.425Z,0.42
2023-01-23T23:20:42.706Z,0.39
2023-01-23T23:23:14.119Z,0.33
2023-01-23T23:25:42.111Z,0.37
2023-01-23T23:28:16.614Z,0.48
2023-01-23T23:31:01.264Z,0.46
2023-01-23T23:33:42.669Z,0.35
2023-01-23T23:36:23.626Z,0.24
2023-01-23T23:38:54.174Z,0.39
2023-01-23T23:41:36.040Z,0.44
2023-01-23T23:44:06.841Z,0.42
2023-01-23T23:46:40.143Z,0.28
2023-01-23T23:49:07.652Z,0.29
2023-01-23T23:51:37.624Z,0.50
2023-01-23T23:54:08.231Z,0.43
2023-01-23T23:56:35.749Z,0.39
2023-01-23T23:59:03.403Z,0.38
